• Join FlightAware (Why Join?)
  • Login
  • US Flag 
07:19PM EDT


 

Airport Tracker/Info


-or-


 

Live Flight TrackerFlight Track Log ✈ N960DL ✈ 14-Apr-2013 ✈ KATL - KMLB

Flight Track Log - Related Links

Times and Time Zones

All times are in EDT time to prevent confusion due to time zone crossing. See the N960DL flight status page for this flight to view local times or setup timezone preferences in your user account.

Time Position Orientation Groundspeed Altitude Reporting Facility
EDT Latitude Longitude Course Direction KTS MPH feet Rate Location/Type
09:24AM 33.6350 -84.3906 111° Southeast 444 511 2,600  Level Atlanta Center
09:25AM 33.6122 -84.3183 111° Southeast 299 344 4,900 2,400 Climbing Atlanta Center
09:26AM 33.5603 -84.2781 147° Southeast 277 319 7,500 3,060 Climbing Atlanta Center
09:27AM 33.4808 -84.2781 180° South 287 330 11,100 3,120 Climbing Atlanta Center
09:28AM 33.3975 -84.2753 178° South 292 336 13,800 2,100 Climbing Atlanta Center
09:29AM 33.3203 -84.2078 144° Southeast 311 358 15,400 1,560 Climbing Atlanta Center
09:30AM 33.2328 -84.1233 141° Southeast 345 397 17,000 1,680 Climbing Atlanta Center
09:31AM 33.1431 -84.0389 142° Southeast 394 453 18,800 1,020 Climbing Atlanta Center
09:32AM 33.0533 -83.9522 141° Southeast 413 475 19,100 1,080 Climbing Atlanta Center
09:33AM 32.9592 -83.8731 145° Southeast 418 481 21,000 1,680 Climbing Atlanta Center
09:34AM 32.8567 -83.7892 145° Southeast 429 494 22,500 1,680 Climbing Atlanta Center
09:35AM 32.7564 -83.7078 146° Southeast 441 507 24,400 2,160 Climbing Atlanta Center
09:36AM 32.6581 -83.6194 143° Southeast 446 513 26,900 1,920 Climbing Atlanta Center
09:37AM 32.5658 -83.5236 139° Southeast 441 507 28,300 1,320 Climbing Atlanta Center
09:38AM 32.4714 -83.4283 140° Southeast 441 507 29,600 1,140 Climbing Atlanta Center
09:40AM 32.3017 -83.2564 139° Southeast 476 548 31,700 780 Climbing Jacksonville Center
09:41AM 32.1956 -83.1528 140° Southeast 470 541 32,000 120 Climbing Jacksonville Center
09:42AM 32.0975 -83.0519 139° Southeast 465 535 32,000  Level Jacksonville Center
09:43AM 31.9953 -82.9564 142° Southeast 465 535 32,000  Level Jacksonville Center
09:44AM 31.8972 -82.8533 138° Southeast 471 542 32,000  Level Jacksonville Center
09:45AM 31.7947 -82.7533 140° Southeast 471 542 32,000  Level Jacksonville Center
09:46AM 31.6967 -82.6581 140° Southeast 471 542 32,000  Level Jacksonville Center
09:47AM 31.5961 -82.5608 141° Southeast 471 542 32,000  Level Jacksonville Center
09:48AM 31.4956 -82.4661 141° Southeast 471 542 32,000  Level Jacksonville Center
09:49AM 31.3950 -82.3839 145° Southeast 458 527 32,000  Level Jacksonville Center
09:50AM 31.3028 -82.3114 146° Southeast 447 514 32,000  Level Jacksonville Center
09:51AM 31.2022 -82.2294 145° Southeast 447 514 32,000  Level Jacksonville Center
09:52AM 31.0975 -82.1406 144° Southeast 452 520 32,000  Level Jacksonville Center
09:53AM 30.9944 -82.0564 145° Southeast 452 520 32,000  Level Jacksonville Center
09:54AM 30.8936 -81.9725 144° Southeast 452 520 32,000  Level Jacksonville Center
09:55AM 30.7908 -81.8867 144° Southeast 452 520 32,000  Level Jacksonville Center
09:56AM 30.6856 -81.7983 144° Southeast 458 527 32,000  Level Jacksonville Center
09:57AM 30.5806 -81.7103 144° Southeast 458 527 32,000  Level Jacksonville Center
09:58AM 30.4669 -81.6153 144° Southeast 458 527 32,000  Level Jacksonville Center
09:59AM 30.3594 -81.5253 144° Southeast 463 533 32,000  Level Jacksonville Center
10:00AM 30.2542 -81.4378 144° Southeast 463 533 32,000  Level Jacksonville Center
10:01AM 30.1486 -81.3506 144° Southeast 468 539 32,000 -180 Level Jacksonville Center
10:02AM 30.0453 -81.2608 143° Southeast 468 539 31,700 -1,200 Descending Jacksonville Center
10:03AM 29.9317 -81.1981 154° Southeast 463 533 29,700 -1,680 Descending Jacksonville Center
10:04AM 29.8103 -81.1833 174° South 436 502 28,400 -1,560 Descending Jacksonville Center
10:05AM 29.6933 -81.1689 174° South 436 502 26,600 -1,860 Descending Jacksonville Center
10:06AM 29.5825 -81.1564 174° South 419 482 24,700 -2,160 Descending Jacksonville Center
10:07AM 29.4758 -81.1439 174° South 403 464 22,300 -2,100 Descending Jacksonville Center
10:08AM 29.3817 -81.1289 172° South 387 445 20,500 -1,800 Descending Jacksonville Center
10:09AM 29.2792 -81.1142 173° South 382 440 18,700 -1,980 Descending Jacksonville Center
10:10AM 29.1850 -81.1039 175° South 367 422 16,600 -1,860 Descending Jacksonville Center
10:11AM 29.0911 -81.0986 177° South 353 406 15,000 -900 Descending Jacksonville Center
10:12AM 28.9950 -81.0908 176° South 348 400 14,800 -780 Descending Jacksonville Center
10:13AM 28.9031 -81.0853 177° South 348 400 13,500 -1,380 Descending Jacksonville Center
10:13AM 28.8667 -81.0833 177° South 336 387 13,100 -1,440 Descending Orlando TRACON
10:14AM 28.7667 -81.0667 172° South 335 386 11,700 -1,320 Descending Orlando TRACON
10:15AM 28.7000 -81.0667 180° South 334 384 10,700 -900 Descending Orlando TRACON
10:16AM 28.6167 -81.0500 170° South 300 345 10,000 -1,140 Descending Orlando TRACON
10:17AM 28.5333 -81.0333 170° South 291 335 8,500 -1,440 Descending Orlando TRACON
10:18AM 28.4500 -81.0000 161° South 280 322 7,200 -1,080 Descending Orlando TRACON
10:19AM 28.3833 -80.9833 168° South 282 325 6,400 -1,020 Descending Orlando TRACON
10:20AM 28.3167 -80.9333 147° Southeast 264 304 5,200 -1,200 Descending Orlando TRACON
10:21AM 28.2667 -80.8833 139° Southeast 256 295 4,200 -1,140 Descending Orlando TRACON
10:22AM 28.2000 -80.8500 156° South 251 289 3,100 -1,020 Descending Orlando TRACON
10:23AM 28.1500 -80.8000 139° Southeast 202 232 2,200 -720 Descending Orlando TRACON
10:24AM 28.1167 -80.7667 139° Southeast 175 201 1,600 -420 Descending Orlando TRACON
10:25AM 28.0833 -80.7500 156° South 149 171 1,400 -480 Descending Orlando TRACON
10:26AM 28.1000 -80.7000 69° East 153 176 700 -720 Descending Orlando TRACON
10:28AM 28.1028 -80.6453 128° Southeast  Level Estimated